South Hampton, New Hampshire
Current Conditions -  °F | °C
As of 9:28 PM on Monday 22 Dec 2014 (Local Time) from KPSM Reporting Station
Light Rain Light Rain  
Wind Chill: 31°   Ceiling: 3300
Heat Index: 36°   Visibility: 5mi
Dew Point: 32°   Wind: 6mph
Humidity: 87%   Direction: 360°N
Pressure: 30.33"   Gusts: NA
Location:  42.9089°N, 70.979°W
Report Text: KPSM 230228Z 36005KT 5SM -RA BR FEW004 SCT016 OVC033 02/00 A3033 RMK AO2A
Loading
Personal Weather Stations






























Interactive Weather Map New forecast layout! Learn more

10-Day Weather Forecast

Advertisements
Track Severe Weather on mobile